sensor_id;sensor_type;location;lat;lon;timestamp;P1;durP1;ratioP1;P2;durP2;ratioP2
70558;SDS011;58108;48.094;11.838;2022-12-18T00:01:20;32.72;;;7.97;;
70558;SDS011;58108;48.094;11.838;2022-12-18T00:03:46;32.40;;;8.47;;
70558;SDS011;58108;48.094;11.838;2022-12-18T00:06:13;35.38;;;9.07;;
70558;SDS011;58108;48.094;11.838;2022-12-18T00:08:40;34.28;;;9.13;;
70558;SDS011;58108;48.094;11.838;2022-12-18T00:11:06;30.83;;;8.93;;
70558;SDS011;58108;48.094;11.838;2022-12-18T00:13:33;32.13;;;9.52;;
70558;SDS011;58108;48.094;11.838;2022-12-18T00:16:03;32.03;;;8.00;;
70558;SDS011;58108;48.094;11.838;2022-12-18T00:18:29;38.28;;;10.20;;
70558;SDS011;58108;48.094;11.838;2022-12-18T00:20:57;37.77;;;9.17;;
70558;SDS011;58108;48.094;11.838;2022-12-18T00:23:27;37.10;;;9.90;;
70558;SDS011;58108;48.094;11.838;2022-12-18T00:25:53;38.78;;;9.30;;
70558;SDS011;58108;48.094;11.838;2022-12-18T00:28:18;40.07;;;11.00;;
70558;SDS011;58108;48.094;11.838;2022-12-18T00:30:43;36.80;;;9.77;;
70558;SDS011;58108;48.094;11.838;2022-12-18T00:33:09;40.00;;;10.20;;
70558;SDS011;58108;48.094;11.838;2022-12-18T00:35:34;35.13;;;9.03;;
70558;SDS011;58108;48.094;11.838;2022-12-18T00:37:59;30.00;;;7.57;;
70558;SDS011;58108;48.094;11.838;2022-12-18T00:40:25;36.23;;;10.03;;
70558;SDS011;58108;48.094;11.838;2022-12-18T00:42:50;32.80;;;9.67;;
70558;SDS011;58108;48.094;11.838;2022-12-18T00:45:25;39.20;;;10.60;;
70558;SDS011;58108;48.094;11.838;2022-12-18T00:47:52;35.72;;;9.52;;
70558;SDS011;58108;48.094;11.838;2022-12-18T00:50:17;27.87;;;8.17;;
70558;SDS011;58108;48.094;11.838;2022-12-18T00:52:43;38.73;;;10.03;;
70558;SDS011;58108;48.094;11.838;2022-12-18T00:55:08;34.13;;;9.43;;
70558;SDS011;58108;48.094;11.838;2022-12-18T00:57:34;46.85;;;11.95;;
70558;SDS011;58108;48.094;11.838;2022-12-18T00:59:59;29.47;;;7.97;;
70558;SDS011;58108;48.094;11.838;2022-12-18T01:02:25;40.37;;;10.33;;
70558;SDS011;58108;48.094;11.838;2022-12-18T01:04:50;41.43;;;9.97;;
70558;SDS011;58108;48.094;11.838;2022-12-18T01:07:15;38.87;;;9.80;;
70558;SDS011;58108;48.094;11.838;2022-12-18T01:09:41;41.37;;;10.27;;
70558;SDS011;58108;48.094;11.838;2022-12-18T01:12:06;37.30;;;10.15;;
70558;SDS011;58108;48.094;11.838;2022-12-18T01:14:31;41.30;;;10.73;;
70558;SDS011;58108;48.094;11.838;2022-12-18T01:16:57;36.00;;;9.20;;
70558;SDS011;58108;48.094;11.838;2022-12-18T01:19:22;31.43;;;9.40;;
70558;SDS011;58108;48.094;11.838;2022-12-18T01:21:48;37.42;;;9.75;;
70558;SDS011;58108;48.094;11.838;2022-12-18T01:24:14;42.80;;;10.87;;
70558;SDS011;58108;48.094;11.838;2022-12-18T01:26:39;32.80;;;9.60;;
70558;SDS011;58108;48.094;11.838;2022-12-18T01:29:04;25.47;;;7.33;;
70558;SDS011;58108;48.094;11.838;2022-12-18T01:31:30;34.50;;;9.93;;
70558;SDS011;58108;48.094;11.838;2022-12-18T01:33:57;15.77;;;5.93;;
70558;SDS011;58108;48.094;11.838;2022-12-18T01:36:26;37.63;;;9.97;;
70558;SDS011;58108;48.094;11.838;2022-12-18T01:38:53;40.17;;;10.13;;
70558;SDS011;58108;48.094;11.838;2022-12-18T01:41:21;43.03;;;11.77;;
70558;SDS011;58108;48.094;11.838;2022-12-18T01:43:55;32.67;;;9.85;;
70558;SDS011;58108;48.094;11.838;2022-12-18T01:46:26;33.83;;;8.82;;
70558;SDS011;58108;48.094;11.838;2022-12-18T01:48:59;42.87;;;11.23;;
70558;SDS011;58108;48.094;11.838;2022-12-18T01:51:26;42.42;;;11.55;;
70558;SDS011;58108;48.094;11.838;2022-12-18T01:53:54;47.80;;;11.77;;
70558;SDS011;58108;48.094;11.838;2022-12-18T01:56:20;43.00;;;10.17;;
70558;SDS011;58108;48.094;11.838;2022-12-18T01:59:00;35.03;;;10.25;;
70558;SDS011;58108;48.094;11.838;2022-12-18T02:01:28;41.10;;;11.15;;
70558;SDS011;58108;48.094;11.838;2022-12-18T02:03:55;39.00;;;10.25;;
70558;SDS011;58108;48.094;11.838;2022-12-18T02:06:24;40.87;;;10.53;;
70558;SDS011;58108;48.094;11.838;2022-12-18T02:11:56;41.40;;;10.85;;
70558;SDS011;58108;48.094;11.838;2022-12-18T02:14:30;34.65;;;9.63;;
70558;SDS011;58108;48.094;11.838;2022-12-18T02:17:08;37.77;;;9.87;;
70558;SDS011;58108;48.094;11.838;2022-12-18T02:27:42;34.95;;;9.27;;
70558;SDS011;58108;48.094;11.838;2022-12-18T02:30:11;38.63;;;10.57;;
70558;SDS011;58108;48.094;11.838;2022-12-18T02:32:38;41.33;;;10.43;;
70558;SDS011;58108;48.094;11.838;2022-12-18T02:35:10;35.38;;;8.95;;
70558;SDS011;58108;48.094;11.838;2022-12-18T02:37:39;43.15;;;11.25;;
70558;SDS011;58108;48.094;11.838;2022-12-18T02:40:07;38.00;;;9.70;;
70558;SDS011;58108;48.094;11.838;2022-12-18T02:42:34;41.13;;;10.45;;
70558;SDS011;58108;48.094;11.838;2022-12-18T02:44:59;38.53;;;9.67;;
70558;SDS011;58108;48.094;11.838;2022-12-18T02:47:27;36.27;;;10.13;;
70558;SDS011;58108;48.094;11.838;2022-12-18T03:01:23;35.70;;;8.80;;
70558;SDS011;58108;48.094;11.838;2022-12-18T03:04:19;35.58;;;8.65;;
70558;SDS011;58108;48.094;11.838;2022-12-18T03:06:52;34.90;;;9.50;;
70558;SDS011;58108;48.094;11.838;2022-12-18T03:09:21;34.30;;;9.25;;
70558;SDS011;58108;48.094;11.838;2022-12-18T03:11:55;39.65;;;10.15;;
70558;SDS011;58108;48.094;11.838;2022-12-18T03:14:43;38.17;;;9.60;;
70558;SDS011;58108;48.094;11.838;2022-12-18T03:17:14;36.58;;;10.50;;
70558;SDS011;58108;48.094;11.838;2022-12-18T03:19:43;41.10;;;9.45;;
70558;SDS011;58108;48.094;11.838;2022-12-18T03:22:10;38.22;;;10.30;;
70558;SDS011;58108;48.094;11.838;2022-12-18T03:24:36;36.93;;;9.70;;
70558;SDS011;58108;48.094;11.838;2022-12-18T03:27:05;27.30;;;6.72;;
70558;SDS011;58108;48.094;11.838;2022-12-18T03:29:36;35.15;;;9.18;;
70558;SDS011;58108;48.094;11.838;2022-12-18T03:32:07;31.73;;;7.65;;
70558;SDS011;58108;48.094;11.838;2022-12-18T03:34:37;33.40;;;8.77;;
70558;SDS011;58108;48.094;11.838;2022-12-18T03:37:04;36.30;;;9.87;;
70558;SDS011;58108;48.094;11.838;2022-12-18T03:39:31;34.95;;;9.20;;
70558;SDS011;58108;48.094;11.838;2022-12-18T03:44:29;31.35;;;7.88;;
70558;SDS011;58108;48.094;11.838;2022-12-18T03:52:28;37.05;;;9.80;;
70558;SDS011;58108;48.094;11.838;2022-12-18T03:55:00;31.77;;;8.85;;
70558;SDS011;58108;48.094;11.838;2022-12-18T03:57:28;32.47;;;9.20;;
70558;SDS011;58108;48.094;11.838;2022-12-18T03:59:58;30.33;;;8.57;;
70558;SDS011;58108;48.094;11.838;2022-12-18T04:02:27;38.40;;;9.20;;
70558;SDS011;58108;48.094;11.838;2022-12-18T04:04:55;36.00;;;8.65;;
70558;SDS011;58108;48.094;11.838;2022-12-18T04:07:25;30.67;;;7.97;;
70558;SDS011;58108;48.094;11.838;2022-12-18T04:09:52;34.22;;;9.57;;
70558;SDS011;58108;48.094;11.838;2022-12-18T04:12:20;34.20;;;8.73;;
70558;SDS011;58108;48.094;11.838;2022-12-18T04:14:46;34.78;;;9.10;;
70558;SDS011;58108;48.094;11.838;2022-12-18T04:17:11;33.97;;;9.17;;
70558;SDS011;58108;48.094;11.838;2022-12-18T04:19:36;35.63;;;10.23;;
70558;SDS011;58108;48.094;11.838;2022-12-18T04:22:01;34.00;;;9.23;;
70558;SDS011;58108;48.094;11.838;2022-12-18T04:24:27;40.10;;;8.97;;
70558;SDS011;58108;48.094;11.838;2022-12-18T04:26:52;34.10;;;8.53;;
70558;SDS011;58108;48.094;11.838;2022-12-18T04:29:17;34.33;;;9.43;;
70558;SDS011;58108;48.094;11.838;2022-12-18T04:31:43;39.33;;;10.60;;
70558;SDS011;58108;48.094;11.838;2022-12-18T04:34:08;34.63;;;9.07;;
70558;SDS011;58108;48.094;11.838;2022-12-18T04:36:33;30.20;;;8.23;;
70558;SDS011;58108;48.094;11.838;2022-12-18T04:38:58;28.30;;;7.77;;
70558;SDS011;58108;48.094;11.838;2022-12-18T04:41:24;36.60;;;9.97;;
70558;SDS011;58108;48.094;11.838;2022-12-18T04:43:49;34.43;;;8.77;;
70558;SDS011;58108;48.094;11.838;2022-12-18T04:46:14;30.77;;;8.63;;
70558;SDS011;58108;48.094;11.838;2022-12-18T04:48:40;33.87;;;9.13;;
70558;SDS011;58108;48.094;11.838;2022-12-18T04:51:05;27.17;;;7.65;;
70558;SDS011;58108;48.094;11.838;2022-12-18T04:53:31;42.88;;;9.02;;
70558;SDS011;58108;48.094;11.838;2022-12-18T04:56:07;35.00;;;9.52;;
70558;SDS011;58108;48.094;11.838;2022-12-18T04:58:35;36.10;;;9.13;;
70558;SDS011;58108;48.094;11.838;2022-12-18T05:01:00;35.85;;;8.75;;
70558;SDS011;58108;48.094;11.838;2022-12-18T05:03:26;35.45;;;9.43;;
70558;SDS011;58108;48.094;11.838;2022-12-18T05:05:51;30.30;;;8.73;;
70558;SDS011;58108;48.094;11.838;2022-12-18T05:08:18;38.17;;;9.43;;
70558;SDS011;58108;48.094;11.838;2022-12-18T05:10:43;32.22;;;9.13;;
70558;SDS011;58108;48.094;11.838;2022-12-18T05:13:08;31.50;;;7.77;;
70558;SDS011;58108;48.094;11.838;2022-12-18T05:15:34;29.90;;;7.73;;
70558;SDS011;58108;48.094;11.838;2022-12-18T05:17:59;33.20;;;8.63;;
70558;SDS011;58108;48.094;11.838;2022-12-18T05:20:26;31.95;;;9.35;;
70558;SDS011;58108;48.094;11.838;2022-12-18T05:22:52;34.83;;;8.60;;
70558;SDS011;58108;48.094;11.838;2022-12-18T05:25:18;35.23;;;8.63;;
70558;SDS011;58108;48.094;11.838;2022-12-18T05:27:44;29.50;;;7.55;;
70558;SDS011;58108;48.094;11.838;2022-12-18T05:30:10;32.40;;;8.98;;
70558;SDS011;58108;48.094;11.838;2022-12-18T05:32:36;31.00;;;8.90;;
70558;SDS011;58108;48.094;11.838;2022-12-18T05:35:02;35.67;;;9.07;;
70558;SDS011;58108;48.094;11.838;2022-12-18T05:37:27;31.30;;;8.30;;
70558;SDS011;58108;48.094;11.838;2022-12-18T05:39:53;25.57;;;6.60;;
70558;SDS011;58108;48.094;11.838;2022-12-18T05:42:18;26.30;;;7.67;;
70558;SDS011;58108;48.094;11.838;2022-12-18T05:44:43;32.27;;;8.20;;
70558;SDS011;58108;48.094;11.838;2022-12-18T05:47:09;27.17;;;6.47;;
70558;SDS011;58108;48.094;11.838;2022-12-18T05:49:34;29.73;;;7.93;;
70558;SDS011;58108;48.094;11.838;2022-12-18T05:52:00;31.70;;;7.30;;
70558;SDS011;58108;48.094;11.838;2022-12-18T05:54:26;15.80;;;4.55;;
70558;SDS011;58108;48.094;11.838;2022-12-18T05:56:53;26.17;;;7.53;;
70558;SDS011;58108;48.094;11.838;2022-12-18T05:59:18;23.02;;;6.57;;
70558;SDS011;58108;48.094;11.838;2022-12-18T06:01:44;28.20;;;7.43;;
70558;SDS011;58108;48.094;11.838;2022-12-18T06:04:09;27.20;;;7.97;;
70558;SDS011;58108;48.094;11.838;2022-12-18T06:06:34;26.87;;;7.20;;
70558;SDS011;58108;48.094;11.838;2022-12-18T06:09:00;31.83;;;8.47;;
70558;SDS011;58108;48.094;11.838;2022-12-18T06:11:26;32.83;;;9.27;;
70558;SDS011;58108;48.094;11.838;2022-12-18T06:13:52;33.42;;;8.38;;
70558;SDS011;58108;48.094;11.838;2022-12-18T06:16:18;31.40;;;8.27;;
70558;SDS011;58108;48.094;11.838;2022-12-18T06:18:44;30.67;;;8.05;;
70558;SDS011;58108;48.094;11.838;2022-12-18T06:21:09;28.30;;;7.70;;
70558;SDS011;58108;48.094;11.838;2022-12-18T06:23:35;32.10;;;8.00;;
70558;SDS011;58108;48.094;11.838;2022-12-18T06:26:08;26.33;;;7.03;;
70558;SDS011;58108;48.094;11.838;2022-12-18T06:28:34;26.90;;;6.95;;
70558;SDS011;58108;48.094;11.838;2022-12-18T06:31:00;28.77;;;7.30;;
70558;SDS011;58108;48.094;11.838;2022-12-18T06:33:27;30.42;;;8.68;;
70558;SDS011;58108;48.094;11.838;2022-12-18T06:35:53;25.33;;;7.97;;
70558;SDS011;58108;48.094;11.838;2022-12-18T06:38:18;28.92;;;8.02;;
70558;SDS011;58108;48.094;11.838;2022-12-18T06:40:44;28.33;;;7.55;;
70558;SDS011;58108;48.094;11.838;2022-12-18T06:43:09;28.83;;;7.30;;
70558;SDS011;58108;48.094;11.838;2022-12-18T06:45:34;24.70;;;7.30;;
70558;SDS011;58108;48.094;11.838;2022-12-18T06:48:00;31.00;;;8.53;;
70558;SDS011;58108;48.094;11.838;2022-12-18T06:50:25;28.00;;;7.83;;
70558;SDS011;58108;48.094;11.838;2022-12-18T06:52:50;30.83;;;8.97;;
70558;SDS011;58108;48.094;11.838;2022-12-18T06:55:16;28.93;;;7.90;;
70558;SDS011;58108;48.094;11.838;2022-12-18T06:57:41;29.80;;;7.60;;
70558;SDS011;58108;48.094;11.838;2022-12-18T07:00:06;28.57;;;7.67;;
70558;SDS011;58108;48.094;11.838;2022-12-18T07:02:32;30.70;;;8.07;;
70558;SDS011;58108;48.094;11.838;2022-12-18T07:04:58;27.47;;;7.33;;
70558;SDS011;58108;48.094;11.838;2022-12-18T07:07:23;26.73;;;8.00;;
70558;SDS011;58108;48.094;11.838;2022-12-18T07:09:49;25.20;;;6.97;;
70558;SDS011;58108;48.094;11.838;2022-12-18T07:12:15;32.33;;;9.07;;
70558;SDS011;58108;48.094;11.838;2022-12-18T07:14:40;30.23;;;7.27;;
70558;SDS011;58108;48.094;11.838;2022-12-18T07:17:05;27.20;;;7.13;;
70558;SDS011;58108;48.094;11.838;2022-12-18T07:19:31;29.00;;;7.50;;
70558;SDS011;58108;48.094;11.838;2022-12-18T07:21:56;28.48;;;7.63;;
70558;SDS011;58108;48.094;11.838;2022-12-18T07:24:21;27.98;;;7.47;;
70558;SDS011;58108;48.094;11.838;2022-12-18T07:26:46;26.37;;;7.13;;
70558;SDS011;58108;48.094;11.838;2022-12-18T07:29:12;25.90;;;6.30;;
70558;SDS011;58108;48.094;11.838;2022-12-18T07:31:38;29.57;;;7.70;;
70558;SDS011;58108;48.094;11.838;2022-12-18T07:34:03;31.10;;;7.13;;
70558;SDS011;58108;48.094;11.838;2022-12-18T07:36:28;26.83;;;7.32;;
70558;SDS011;58108;48.094;11.838;2022-12-18T07:38:54;28.57;;;6.97;;
70558;SDS011;58108;48.094;11.838;2022-12-18T07:41:19;26.70;;;6.97;;
70558;SDS011;58108;48.094;11.838;2022-12-18T07:43:45;25.35;;;7.63;;
70558;SDS011;58108;48.094;11.838;2022-12-18T07:46:12;35.05;;;8.43;;
70558;SDS011;58108;48.094;11.838;2022-12-18T07:48:39;27.73;;;7.27;;
70558;SDS011;58108;48.094;11.838;2022-12-18T07:51:06;28.58;;;7.13;;
70558;SDS011;58108;48.094;11.838;2022-12-18T07:53:32;31.55;;;8.70;;
70558;SDS011;58108;48.094;11.838;2022-12-18T07:55:59;26.88;;;7.13;;
70558;SDS011;58108;48.094;11.838;2022-12-18T07:58:26;28.20;;;7.70;;
70558;SDS011;58108;48.094;11.838;2022-12-18T08:00:51;26.20;;;6.93;;
70558;SDS011;58108;48.094;11.838;2022-12-18T08:03:17;27.73;;;7.03;;
70558;SDS011;58108;48.094;11.838;2022-12-18T08:05:43;25.85;;;6.43;;
70558;SDS011;58108;48.094;11.838;2022-12-18T08:08:08;24.50;;;6.90;;
70558;SDS011;58108;48.094;11.838;2022-12-18T08:10:33;26.90;;;6.87;;
70558;SDS011;58108;48.094;11.838;2022-12-18T08:12:58;26.90;;;7.80;;
70558;SDS011;58108;48.094;11.838;2022-12-18T08:15:24;26.23;;;6.50;;
70558;SDS011;58108;48.094;11.838;2022-12-18T08:17:49;27.30;;;7.20;;
70558;SDS011;58108;48.094;11.838;2022-12-18T08:20:14;26.97;;;6.90;;
70558;SDS011;58108;48.094;11.838;2022-12-18T08:22:43;25.23;;;6.20;;
70558;SDS011;58108;48.094;11.838;2022-12-18T08:25:08;24.58;;;6.15;;
70558;SDS011;58108;48.094;11.838;2022-12-18T08:27:34;20.35;;;5.85;;
70558;SDS011;58108;48.094;11.838;2022-12-18T08:30:00;24.17;;;6.70;;
70558;SDS011;58108;48.094;11.838;2022-12-18T08:32:26;21.77;;;5.93;;
70558;SDS011;58108;48.094;11.838;2022-12-18T08:34:52;17.83;;;4.40;;
70558;SDS011;58108;48.094;11.838;2022-12-18T08:37:17;23.43;;;6.50;;
70558;SDS011;58108;48.094;11.838;2022-12-18T08:39:43;20.87;;;5.57;;
70558;SDS011;58108;48.094;11.838;2022-12-18T08:42:08;24.93;;;6.30;;
70558;SDS011;58108;48.094;11.838;2022-12-18T08:44:52;23.08;;;6.75;;
70558;SDS011;58108;48.094;11.838;2022-12-18T08:47:17;23.23;;;6.47;;
70558;SDS011;58108;48.094;11.838;2022-12-18T08:49:42;20.27;;;6.50;;
70558;SDS011;58108;48.094;11.838;2022-12-18T08:52:09;19.55;;;5.35;;
70558;SDS011;58108;48.094;11.838;2022-12-18T08:54:34;21.07;;;6.30;;
70558;SDS011;58108;48.094;11.838;2022-12-18T08:56:59;23.67;;;6.83;;
70558;SDS011;58108;48.094;11.838;2022-12-18T08:59:28;20.03;;;5.70;;
70558;SDS011;58108;48.094;11.838;2022-12-18T09:01:53;25.15;;;6.43;;
70558;SDS011;58108;48.094;11.838;2022-12-18T09:04:20;22.88;;;5.90;;
70558;SDS011;58108;48.094;11.838;2022-12-18T09:06:45;17.73;;;5.77;;
70558;SDS011;58108;48.094;11.838;2022-12-18T09:09:10;10.20;;;3.57;;
70558;SDS011;58108;48.094;11.838;2022-12-18T09:11:36;20.50;;;5.80;;
70558;SDS011;58108;48.094;11.838;2022-12-18T09:14:01;20.97;;;6.37;;
70558;SDS011;58108;48.094;11.838;2022-12-18T09:16:27;22.20;;;5.77;;
70558;SDS011;58108;48.094;11.838;2022-12-18T09:18:57;24.02;;;7.13;;
70558;SDS011;58108;48.094;11.838;2022-12-18T09:21:27;16.17;;;4.65;;
70558;SDS011;58108;48.094;11.838;2022-12-18T09:23:55;17.83;;;5.47;;
70558;SDS011;58108;48.094;11.838;2022-12-18T09:26:21;25.42;;;7.53;;
70558;SDS011;58108;48.094;11.838;2022-12-18T09:28:47;23.33;;;6.22;;
70558;SDS011;58108;48.094;11.838;2022-12-18T09:31:15;19.13;;;6.13;;
70558;SDS011;58108;48.094;11.838;2022-12-18T09:33:41;26.05;;;7.30;;
70558;SDS011;58108;48.094;11.838;2022-12-18T09:36:08;20.80;;;6.60;;
70558;SDS011;58108;48.094;11.838;2022-12-18T09:38:36;26.25;;;6.85;;
70558;SDS011;58108;48.094;11.838;2022-12-18T09:41:05;24.70;;;6.17;;
70558;SDS011;58108;48.094;11.838;2022-12-18T09:43:44;21.98;;;4.63;;
70558;SDS011;58108;48.094;11.838;2022-12-18T09:46:17;25.05;;;6.63;;
70558;SDS011;58108;48.094;11.838;2022-12-18T09:48:56;24.77;;;5.47;;
70558;SDS011;58108;48.094;11.838;2022-12-18T09:51:27;19.20;;;6.20;;
70558;SDS011;58108;48.094;11.838;2022-12-18T09:53:58;18.85;;;6.15;;
70558;SDS011;58108;48.094;11.838;2022-12-18T09:56:28;21.08;;;5.90;;
70558;SDS011;58108;48.094;11.838;2022-12-18T09:59:00;23.60;;;6.97;;
70558;SDS011;58108;48.094;11.838;2022-12-18T10:01:28;24.30;;;6.60;;
70558;SDS011;58108;48.094;11.838;2022-12-18T10:03:55;22.38;;;6.22;;
70558;SDS011;58108;48.094;11.838;2022-12-18T10:09:02;18.95;;;5.53;;
70558;SDS011;58108;48.094;11.838;2022-12-18T10:11:43;21.63;;;5.05;;
70558;SDS011;58108;48.094;11.838;2022-12-18T10:19:35;22.90;;;5.93;;
70558;SDS011;58108;48.094;11.838;2022-12-18T10:27:40;15.33;;;4.43;;
70558;SDS011;58108;48.094;11.838;2022-12-18T10:30:12;23.40;;;5.45;;
70558;SDS011;58108;48.094;11.838;2022-12-18T10:32:40;15.77;;;3.97;;
70558;SDS011;58108;48.094;11.838;2022-12-18T10:35:07;12.52;;;3.83;;
70558;SDS011;58108;48.094;11.838;2022-12-18T10:40:58;13.60;;;3.85;;
70558;SDS011;58108;48.094;11.838;2022-12-18T10:43:26;12.80;;;3.47;;
70558;SDS011;58108;48.094;11.838;2022-12-18T10:45:58;12.10;;;3.90;;
70558;SDS011;58108;48.094;11.838;2022-12-18T10:48:34;21.07;;;5.33;;
70558;SDS011;58108;48.094;11.838;2022-12-18T10:51:07;21.88;;;5.53;;
70558;SDS011;58108;48.094;11.838;2022-12-18T10:53:33;9.95;;;3.53;;
70558;SDS011;58108;48.094;11.838;2022-12-18T10:56:01;21.55;;;5.35;;
70558;SDS011;58108;48.094;11.838;2022-12-18T11:03:44;19.30;;;6.18;;
70558;SDS011;58108;48.094;11.838;2022-12-18T11:06:16;18.10;;;4.45;;
70558;SDS011;58108;48.094;11.838;2022-12-18T11:08:44;18.75;;;5.78;;
70558;SDS011;58108;48.094;11.838;2022-12-18T11:11:22;21.80;;;6.03;;
70558;SDS011;58108;48.094;11.838;2022-12-18T11:13:59;23.57;;;6.83;;
70558;SDS011;58108;48.094;11.838;2022-12-18T11:16:26;19.73;;;5.80;;
70558;SDS011;58108;48.094;11.838;2022-12-18T11:18:52;22.33;;;6.90;;
70558;SDS011;58108;48.094;11.838;2022-12-18T11:21:18;24.20;;;6.95;;
70558;SDS011;58108;48.094;11.838;2022-12-18T11:23:50;20.57;;;5.93;;
70558;SDS011;58108;48.094;11.838;2022-12-18T11:26:17;11.03;;;3.13;;
70558;SDS011;58108;48.094;11.838;2022-12-18T11:28:44;13.25;;;3.78;;
70558;SDS011;58108;48.094;11.838;2022-12-18T11:33:52;9.15;;;2.90;;
70558;SDS011;58108;48.094;11.838;2022-12-18T11:36:23;14.88;;;5.07;;
70558;SDS011;58108;48.094;11.838;2022-12-18T11:38:49;16.73;;;4.83;;
70558;SDS011;58108;48.094;11.838;2022-12-18T11:41:34;21.13;;;5.75;;
70558;SDS011;58108;48.094;11.838;2022-12-18T11:44:28;21.60;;;6.97;;
70558;SDS011;58108;48.094;11.838;2022-12-18T11:47:02;21.50;;;6.45;;
70558;SDS011;58108;48.094;11.838;2022-12-18T11:49:34;18.83;;;5.95;;
70558;SDS011;58108;48.094;11.838;2022-12-18T11:52:02;22.77;;;7.03;;
70558;SDS011;58108;48.094;11.838;2022-12-18T11:54:46;16.77;;;4.45;;
70558;SDS011;58108;48.094;11.838;2022-12-18T11:59:54;13.80;;;4.38;;
70558;SDS011;58108;48.094;11.838;2022-12-18T12:19:48;19.40;;;6.15;;
70558;SDS011;58108;48.094;11.838;2022-12-18T12:22:36;14.40;;;4.25;;
70558;SDS011;58108;48.094;11.838;2022-12-18T12:25:41;22.60;;;6.38;;
70558;SDS011;58108;48.094;11.838;2022-12-18T12:31:44;17.30;;;5.40;;
70558;SDS011;58108;48.094;11.838;2022-12-18T12:40:20;18.92;;;5.70;;
70558;SDS011;58108;48.094;11.838;2022-12-18T12:42:53;17.00;;;4.78;;
70558;SDS011;58108;48.094;11.838;2022-12-18T12:51:04;14.98;;;5.05;;
70558;SDS011;58108;48.094;11.838;2022-12-18T12:53:36;10.45;;;3.63;;
70558;SDS011;58108;48.094;11.838;2022-12-18T12:56:03;17.25;;;4.78;;
70558;SDS011;58108;48.094;11.838;2022-12-18T13:01:04;19.30;;;5.85;;
70558;SDS011;58108;48.094;11.838;2022-12-18T13:03:41;20.73;;;6.15;;
70558;SDS011;58108;48.094;11.838;2022-12-18T13:06:23;13.45;;;4.50;;
70558;SDS011;58108;48.094;11.838;2022-12-18T13:09:08;16.10;;;4.15;;
70558;SDS011;58108;48.094;11.838;2022-12-18T13:17:33;12.27;;;3.95;;
70558;SDS011;58108;48.094;11.838;2022-12-18T13:20:04;19.23;;;6.22;;
70558;SDS011;58108;48.094;11.838;2022-12-18T13:22:34;25.23;;;7.15;;
70558;SDS011;58108;48.094;11.838;2022-12-18T13:28:04;21.20;;;5.80;;
70558;SDS011;58108;48.094;11.838;2022-12-18T13:33:30;25.17;;;7.53;;
70558;SDS011;58108;48.094;11.838;2022-12-18T13:39:20;25.48;;;7.68;;
70558;SDS011;58108;48.094;11.838;2022-12-18T13:41:36;24.70;;;7.25;;
70558;SDS011;58108;48.094;11.838;2022-12-18T13:44:10;25.17;;;7.33;;
70558;SDS011;58108;48.094;11.838;2022-12-18T13:46:43;24.53;;;7.00;;
70558;SDS011;58108;48.094;11.838;2022-12-18T13:51:46;27.35;;;8.02;;
70558;SDS011;58108;48.094;11.838;2022-12-18T13:57:04;27.38;;;7.97;;
70558;SDS011;58108;48.094;11.838;2022-12-18T13:59:38;26.23;;;6.63;;
70558;SDS011;58108;48.094;11.838;2022-12-18T14:02:17;22.00;;;7.15;;
70558;SDS011;58108;48.094;11.838;2022-12-18T14:04:47;29.75;;;8.55;;
70558;SDS011;58108;48.094;11.838;2022-12-18T14:07:16;23.70;;;7.93;;
70558;SDS011;58108;48.094;11.838;2022-12-18T14:09:53;25.75;;;7.00;;
70558;SDS011;58108;48.094;11.838;2022-12-18T14:12:24;24.93;;;6.93;;
70558;SDS011;58108;48.094;11.838;2022-12-18T14:20:34;28.83;;;8.80;;
70558;SDS011;58108;48.094;11.838;2022-12-18T14:23:00;28.93;;;8.33;;
70558;SDS011;58108;48.094;11.838;2022-12-18T14:25:29;24.80;;;6.70;;
70558;SDS011;58108;48.094;11.838;2022-12-18T14:28:04;24.63;;;6.43;;
70558;SDS011;58108;48.094;11.838;2022-12-18T14:30:37;18.25;;;4.95;;
70558;SDS011;58108;48.094;11.838;2022-12-18T14:35:34;23.83;;;6.70;;
70558;SDS011;58108;48.094;11.838;2022-12-18T14:41:12;25.90;;;7.07;;
70558;SDS011;58108;48.094;11.838;2022-12-18T14:43:40;20.95;;;6.25;;
70558;SDS011;58108;48.094;11.838;2022-12-18T14:46:27;25.45;;;6.97;;
70558;SDS011;58108;48.094;11.838;2022-12-18T14:48:53;22.63;;;7.03;;
70558;SDS011;58108;48.094;11.838;2022-12-18T14:51:19;25.30;;;7.13;;
70558;SDS011;58108;48.094;11.838;2022-12-18T14:53:47;15.43;;;5.05;;
70558;SDS011;58108;48.094;11.838;2022-12-18T14:56:20;20.63;;;5.18;;
70558;SDS011;58108;48.094;11.838;2022-12-18T14:58:48;21.20;;;6.30;;
70558;SDS011;58108;48.094;11.838;2022-12-18T15:01:20;22.85;;;7.10;;
70558;SDS011;58108;48.094;11.838;2022-12-18T15:03:49;27.13;;;6.83;;
70558;SDS011;58108;48.094;11.838;2022-12-18T15:06:24;27.38;;;7.40;;
70558;SDS011;58108;48.094;11.838;2022-12-18T15:08:55;25.48;;;7.82;;
70558;SDS011;58108;48.094;11.838;2022-12-18T15:16:56;22.92;;;7.20;;
70558;SDS011;58108;48.094;11.838;2022-12-18T15:19:27;19.50;;;6.15;;
70558;SDS011;58108;48.094;11.838;2022-12-18T15:22:00;20.95;;;5.88;;
70558;SDS011;58108;48.094;11.838;2022-12-18T15:24:27;20.57;;;6.23;;
70558;SDS011;58108;48.094;11.838;2022-12-18T15:26:55;23.48;;;6.28;;
70558;SDS011;58108;48.094;11.838;2022-12-18T15:29:21;13.57;;;4.00;;
70558;SDS011;58108;48.094;11.838;2022-12-18T15:32:00;19.98;;;6.43;;
70558;SDS011;58108;48.094;11.838;2022-12-18T15:34:27;20.58;;;5.90;;
70558;SDS011;58108;48.094;11.838;2022-12-18T15:36:53;21.17;;;5.37;;
70558;SDS011;58108;48.094;11.838;2022-12-18T15:39:18;27.97;;;7.20;;
70558;SDS011;58108;48.094;11.838;2022-12-18T15:41:43;26.23;;;7.63;;
70558;SDS011;58108;48.094;11.838;2022-12-18T15:44:29;22.40;;;6.43;;
70558;SDS011;58108;48.094;11.838;2022-12-18T15:46:54;15.55;;;4.32;;
70558;SDS011;58108;48.094;11.838;2022-12-18T15:49:20;23.10;;;6.97;;
70558;SDS011;58108;48.094;11.838;2022-12-18T15:51:45;25.30;;;6.63;;
70558;SDS011;58108;48.094;11.838;2022-12-18T15:54:15;26.40;;;6.88;;
70558;SDS011;58108;48.094;11.838;2022-12-18T15:56:41;21.97;;;6.77;;
70558;SDS011;58108;48.094;11.838;2022-12-18T15:59:25;27.98;;;7.18;;
70558;SDS011;58108;48.094;11.838;2022-12-18T16:01:51;30.85;;;7.45;;
70558;SDS011;58108;48.094;11.838;2022-12-18T16:04:21;28.85;;;7.97;;
70558;SDS011;58108;48.094;11.838;2022-12-18T16:06:50;24.67;;;7.37;;
70558;SDS011;58108;48.094;11.838;2022-12-18T16:09:16;35.05;;;9.85;;
70558;SDS011;58108;48.094;11.838;2022-12-18T16:11:42;21.67;;;6.47;;
70558;SDS011;58108;48.094;11.838;2022-12-18T16:16:47;28.33;;;7.80;;
70558;SDS011;58108;48.094;11.838;2022-12-18T16:19:15;28.67;;;8.30;;
70558;SDS011;58108;48.094;11.838;2022-12-18T16:21:41;27.38;;;7.85;;
70558;SDS011;58108;48.094;11.838;2022-12-18T16:24:10;26.00;;;7.17;;
70558;SDS011;58108;48.094;11.838;2022-12-18T16:26:40;21.27;;;6.07;;
70558;SDS011;58108;48.094;11.838;2022-12-18T16:29:06;25.60;;;6.60;;
70558;SDS011;58108;48.094;11.838;2022-12-18T16:31:32;27.53;;;7.67;;
70558;SDS011;58108;48.094;11.838;2022-12-18T16:34:15;26.40;;;8.00;;
70558;SDS011;58108;48.094;11.838;2022-12-18T16:36:48;22.40;;;6.90;;
70558;SDS011;58108;48.094;11.838;2022-12-18T16:39:13;19.02;;;4.85;;
70558;SDS011;58108;48.094;11.838;2022-12-18T16:41:39;25.27;;;6.50;;